Time;durP1;ratioP1;P1;durP2;ratioP2;P2;SDS_P1;SDS_P2;PMS_P1;PMS_P2;Temp;Humidity;BMP_temperature;BMP_pressure;BME280_temperature;BME280_humidity;BME280_pressure;Samples;Min_cycle;Max_cycle;Signal;HPM_P1;HPM_P2
2022/10/03 00:02:13;;;;;;;3.17;0.80;;;;;;;10.23;97.33;98722.70;1738952;82;21660;-60
2022/10/03 00:05:25;;;;;;;1.95;0.68;;;;;;;10.24;97.94;98719.98;1751459;81;20959;-61
2022/10/03 00:08:16;;;;;;;1.75;0.90;;;;;;;10.26;98.54;98727.72;1742523;80;21936;-61
2022/10/03 00:10:54;;;;;;;1.42;0.62;;;;;;;10.27;98.08;98729.42;1748878;80;21068;-61
2022/10/03 00:13:28;;;;;;;0.95;0.60;;;;;;;10.28;98.08;98729.34;1746548;80;21003;-61
2022/10/03 00:16:18;;;;;;;3.58;0.88;;;;;;;10.30;97.72;98735.75;1749685;81;20913;-60
2022/10/03 00:18:59;;;;;;;6.37;1.10;;;;;;;10.32;97.77;98733.89;1753505;81;20896;-61
2022/10/03 00:21:59;;;;;;;4.90;0.80;;;;;;;10.33;97.80;98742.08;1734568;82;21023;-60
2022/10/03 00:24:43;;;;;;;2.12;0.68;;;;;;;10.34;98.11;98741.17;1737024;82;20911;-60
2022/10/03 00:27:31;;;;;;;2.15;0.60;;;;;;;10.35;97.77;98734.17;1734396;82;20958;-61
2022/10/03 00:30:19;;;;;;;1.00;0.60;;;;;;;10.35;97.83;98742.83;1739370;82;21010;-61
2022/10/03 00:33:06;;;;;;;1.95;0.70;;;;;;;10.36;98.50;98742.36;1740009;81;20999;-61
2022/10/03 00:35:48;;;;;;;1.77;0.57;;;;;;;10.35;98.57;98748.05;1738400;81;21055;-61
2022/10/03 00:38:44;;;;;;;3.30;0.75;;;;;;;10.37;98.46;98745.36;1733617;82;21001;-60
2022/10/03 00:41:38;;;;;;;2.20;0.95;;;;;;;10.38;98.39;98747.86;1732142;82;20907;-60
2022/10/03 00:44:31;;;;;;;0.85;0.50;;;;;;;10.39;98.17;98741.73;1746709;80;20920;-60
2022/10/03 00:47:03;;;;;;;1.80;0.70;;;;;;;10.40;98.36;98739.95;1682248;84;21087;-61
2022/10/03 00:49:55;;;;;;;6.97;1.25;;;;;;;10.41;98.10;98742.92;1677408;84;21149;-61
2022/10/03 00:53:00;;;;;;;2.87;0.75;;;;;;;10.43;98.28;98744.97;1735786;81;20997;-60
2022/10/03 00:55:38;;;;;;;1.12;0.50;;;;;;;10.43;98.15;98742.37;1680364;84;20893;-60
2022/10/03 00:58:25;;;;;;;1.60;0.80;;;;;;;10.41;98.30;98735.92;1734368;81;21471;-61
2022/10/03 01:00:56;;;;;;;1.15;0.60;;;;;;;10.40;98.11;98727.73;1704967;82;21094;-61
2022/10/03 01:03:52;;;;;;;2.22;0.80;;;;;;;10.39;98.18;98736.51;1700490;83;21047;-61
2022/10/03 01:06:42;;;;;;;3.40;0.70;;;;;;;10.39;98.22;98726.07;1698191;84;20904;-61
2022/10/03 01:09:23;;;;;;;3.17;0.62;;;;;;;10.41;98.15;98728.56;1695061;83;20931;-61
2022/10/03 01:12:00;;;;;;;5.00;0.72;;;;;;;10.41;98.23;98724.18;1737861;81;21121;-60
2022/10/03 01:14:53;;;;;;;2.05;0.80;;;;;;;10.43;98.04;98732.76;1737506;81;21532;-61
2022/10/03 01:17:37;;;;;;;1.47;0.53;;;;;;;10.43;98.12;98721.48;1733209;82;22036;-61
2022/10/03 01:20:15;;;;;;;3.00;1.00;;;;;;;10.44;98.00;98723.98;1743022;78;20957;-61
2022/10/03 01:23:22;;;;;;;1.40;0.68;;;;;;;10.43;98.01;98724.93;1800117;78;21011;-60
2022/10/03 01:26:03;;;;;;;1.57;0.65;;;;;;;10.44;98.07;98723.16;1803000;77;20892;-61
2022/10/03 01:31:58;;;;;;;1.02;0.50;;;;;;;10.45;98.18;98722.23;1809042;77;22082;-61
2022/10/03 01:34:41;;;;;;;2.87;0.80;;;;;;;10.43;98.62;98722.32;1803254;78;20937;-61
2022/10/03 01:37:31;;;;;;;1.75;0.80;;;;;;;10.42;98.31;98716.74;1805623;78;20967;-60
2022/10/03 01:40:09;;;;;;;2.72;0.95;;;;;;;10.44;98.40;98719.23;1798224;78;21009;-61
2022/10/03 01:42:48;;;;;;;3.27;0.90;;;;;;;10.43;98.23;98717.10;1811771;78;20938;-61
2022/10/03 01:45:28;;;;;;;2.67;0.80;;;;;;;10.43;98.54;98718.41;1809976;77;21654;-61
2022/10/03 01:48:09;;;;;;;1.55;0.80;;;;;;;10.43;98.73;98721.02;1800821;77;20949;-61
2022/10/03 01:50:53;;;;;;;2.47;0.90;;;;;;;10.45;98.64;98725.68;1800138;77;20922;-61
2022/10/03 01:53:59;;;;;;;2.05;0.90;;;;;;;10.45;98.67;98726.98;1815623;78;20946;-60
2022/10/03 01:57:00;;;;;;;1.20;0.80;;;;;;;10.44;99.61;98729.20;1772926;80;21056;-61
2022/10/03 01:59:47;;;;;;;1.98;1.00;;;;;;;10.40;100.00;98726.43;1770760;79;21040;-61
2022/10/03 02:02:30;;;;;;;3.27;1.17;;;;;;;10.33;100.00;98735.56;1769902;80;21500;-61
2022/10/03 02:05:22;;;;;;;1.15;0.60;;;;;;;10.31;99.75;98736.14;1782670;79;21092;-60
2022/10/03 02:08:11;;;;;;;2.05;0.70;;;;;;;10.27;100.00;98745.08;1780191;80;20985;-60
2022/10/03 02:11:09;;;;;;;2.10;0.60;;;;;;;10.29;100.00;98743.22;1780652;80;20982;-61
2022/10/03 02:13:59;;;;;;;1.35;0.75;;;;;;;10.33;100.00;98742.08;1781520;80;21128;-60
2022/10/03 02:16:46;;;;;;;2.60;0.90;;;;;;;10.35;100.00;98740.22;1646389;85;21116;-61
2022/10/03 02:19:35;;;;;;;1.37;0.78;;;;;;;10.36;100.00;98749.72;1644923;85;21589;-61
2022/10/03 02:22:02;;;;;;;2.15;0.75;;;;;;;10.38;100.00;98740.03;1647688;85;20910;-60
2022/10/03 02:24:46;;;;;;;2.53;0.90;;;;;;;10.40;100.00;98753.83;1647041;85;21484;-61
2022/10/03 02:27:36;;;;;;;1.98;0.90;;;;;;;10.43;100.00;98761.47;1657046;84;21559;-60
2022/10/03 02:30:16;;;;;;;2.58;0.98;;;;;;;10.45;100.00;98763.52;1660410;85;21342;-60
2022/10/03 02:33:25;;;;;;;3.33;1.00;;;;;;;10.48;100.00;98767.24;1661480;85;20993;-60
2022/10/03 02:36:14;;;;;;;4.90;1.10;;;;;;;10.51;100.00;98769.66;1662673;84;20939;-61
2022/10/03 02:39:19;;;;;;;6.42;1.30;;;;;;;10.56;100.00;98776.35;1663209;85;21060;-61
2022/10/03 02:42:01;;;;;;;4.60;1.72;;;;;;;10.59;100.00;98777.49;1664624;84;21082;-61
2022/10/03 02:45:14;;;;;;;4.78;1.10;;;;;;;10.61;100.00;98782.13;1654543;84;20982;-60
2022/10/03 02:48:24;;;;;;;3.25;1.00;;;;;;;10.60;100.00;98788.30;1669539;85;21034;-60
2022/10/03 02:51:02;;;;;;;3.12;1.47;;;;;;;10.60;100.00;98801.34;1652972;85;21514;-61
2022/10/03 02:53:34;;;;;;;2.83;1.60;;;;;;;10.55;100.00;98799.48;1780521;78;21464;-60
2022/10/03 02:56:24;;;;;;;2.87;1.77;;;;;;;10.52;100.00;98805.25;1818763;77;21026;-61
2022/10/03 02:59:04;;;;;;;4.95;2.00;;;;;;;10.57;100.00;98814.59;1808826;78;21012;-60
2022/10/03 03:02:10;;;;;;;3.05;1.90;;;;;;;10.54;100.00;98805.17;1811576;77;21080;-60
2022/10/03 03:05:27;;;;;;;4.22;2.40;;;;;;;10.51;100.00;98808.81;1748685;81;21049;-60
2022/10/03 03:08:45;;;;;;;6.05;2.50;;;;;;;10.48;100.00;98814.22;1737167;81;21043;-61
2022/10/03 03:11:36;;;;;;;3.85;2.77;;;;;;;10.46;100.00;98826.52;1743203;80;21059;-61
2022/10/03 03:14:29;;;;;;;4.65;2.60;;;;;;;10.45;100.00;98830.07;1749246;80;21589;-60
2022/10/03 03:17:07;;;;;;;3.25;2.72;;;;;;;10.43;100.00;98834.53;1748044;81;20867;-60
2022/10/03 03:20:10;;;;;;;4.28;3.00;;;;;;;10.39;100.00;98829.59;1750948;81;21015;-60
2022/10/03 03:22:55;;;;;;;2.35;2.15;;;;;;;10.33;100.00;98835.18;1705140;82;21044;-60
2022/10/03 03:25:49;;;;;;;4.90;2.62;;;;;;;10.28;100.00;98840.70;1702140;83;21943;-60
2022/10/03 03:28:36;;;;;;;4.08;2.50;;;;;;;10.25;100.00;98843.42;1694078;83;20988;-61
2022/10/03 03:31:20;;;;;;;7.60;3.55;;;;;;;10.21;100.00;98857.60;1704984;83;20955;-60
2022/10/03 03:34:27;;;;;;;4.12;2.95;;;;;;;10.16;100.00;98847.42;1700907;82;21049;-61
2022/10/03 03:37:10;;;;;;;4.30;3.00;;;;;;;10.15;100.00;98855.36;1702380;83;20894;-60
2022/10/03 03:40:00;;;;;;;5.62;3.55;;;;;;;10.09;100.00;98862.61;1698881;82;21053;-60
2022/10/03 03:43:01;;;;;;;5.60;3.62;;;;;;;10.09;100.00;98860.00;1734375;81;20949;-60
2022/10/03 03:45:56;;;;;;;5.45;3.70;;;;;;;10.06;100.00;98865.41;1736425;82;20965;-60
2022/10/03 03:48:45;;;;;;;7.67;3.25;;;;;;;10.06;100.00;98873.23;1735675;81;20945;-61
2022/10/03 03:51:41;;;;;;;7.67;3.27;;;;;;;10.04;100.00;98873.78;1733113;81;20965;-61
2022/10/03 03:54:25;;;;;;;8.70;3.85;;;;;;;10.02;100.00;98869.11;1712698;82;21239;-61
2022/10/03 03:57:10;;;;;;;6.72;3.22;;;;;;;10.01;100.00;98873.95;1732332;81;21583;-60
2022/10/03 04:00:09;;;;;;;6.45;3.47;;;;;;;10.00;100.00;98878.81;1794112;78;20979;-60
2022/10/03 04:03:14;;;;;;;6.37;3.70;;;;;;;10.01;100.00;98884.86;1750840;80;20892;-60
2022/10/03 04:06:07;;;;;;;5.70;3.70;;;;;;;9.99;100.00;98897.97;1765927;81;20859;-60
2022/10/03 04:09:00;;;;;;;10.15;3.95;;;;;;;9.99;100.00;98899.75;1763480;79;22043;-61
2022/10/03 04:11:48;;;;;;;4.20;2.87;;;;;;;10.00;100.00;98906.20;1756798;80;20910;-60
2022/10/03 04:14:24;;;;;;;3.72;3.20;;;;;;;10.01;100.00;98913.08;1763492;79;20934;-61
2022/10/03 04:20:07;;;;;;;4.28;2.75;;;;;;;10.05;100.00;98910.69;1755974;79;21143;-60
2022/10/03 04:22:54;;;;;;;4.10;2.70;;;;;;;10.07;100.00;98906.20;1766457;80;21883;-60
2022/10/03 04:25:32;;;;;;;3.85;2.35;;;;;;;10.11;100.00;98916.45;1765732;81;20954;-60
2022/10/03 04:28:13;;;;;;;3.05;2.47;;;;;;;10.14;100.00;98924.95;1741257;81;20950;-60
2022/10/03 04:31:18;;;;;;;5.28;2.62;;;;;;;10.15;100.00;98927.09;1761222;79;22077;-61
2022/10/03 04:33:59;;;;;;;4.90;2.92;;;;;;;10.12;100.00;98925.97;1760849;79;21009;-60
2022/10/03 04:36:52;;;;;;;7.97;3.02;;;;;;;10.15;100.00;98931.01;1759612;80;21896;-60
2022/10/03 04:39:29;;;;;;;3.22;2.65;;;;;;;10.14;100.00;98941.05;1718042;81;20981;-60
2022/10/03 04:42:04;;;;;;;5.62;2.95;;;;;;;10.12;100.00;98934.63;1745458;80;20994;-60
2022/10/03 04:45:13;;;;;;;4.83;3.00;;;;;;;10.12;100.00;98953.36;1723580;82;21632;-60
2022/10/03 04:47:50;;;;;;;3.58;3.27;;;;;;;10.16;100.00;98947.03;1719613;82;20919;-61
2022/10/03 04:50:56;;;;;;;5.35;2.95;;;;;;;10.18;99.94;98949.09;1740045;80;21728;-61
2022/10/03 04:53:53;;;;;;;5.28;3.30;;;;;;;10.19;99.88;98959.42;1719339;82;21013;-60
2022/10/03 04:56:29;;;;;;;;;;;;;;;10.17;99.46;98969.59;1730761;81;20999;-61
2022/10/03 04:59:20;;;;;;;5.65;3.85;;;;;;;10.12;99.28;98980.75;1725066;81;20781;-60
2022/10/03 05:02:04;;;;;;;6.30;4.03;;;;;;;10.07;99.25;98985.75;1732670;81;20995;-60
2022/10/03 05:04:45;;;;;;;4.85;3.70;;;;;;;10.03;98.63;98990.78;1742950;80;21013;-60
2022/10/03 05:07:24;;;;;;;5.70;4.50;;;;;;;10.05;98.65;99000.67;1722442;81;20899;-61
2022/10/03 05:10:18;;;;;;;5.28;3.95;;;;;;;10.01;98.19;98997.84;1724430;81;21034;-61
2022/10/03 05:13:20;;;;;;;5.67;3.95;;;;;;;10.01;98.16;98995.70;1652014;85;21048;-60
2022/10/03 05:16:01;;;;;;;6.25;4.70;;;;;;;9.95;98.12;98999.49;1651456;84;20997;-61
2022/10/03 05:18:54;;;;;;;5.72;4.22;;;;;;;9.89;97.73;98997.23;1642505;85;20960;-60
2022/10/03 05:21:35;;;;;;;7.58;4.15;;;;;;;9.84;97.29;99018.81;1654823;85;21056;-60
2022/10/03 05:24:29;;;;;;;5.87;4.37;;;;;;;9.82;97.14;99010.23;1654657;85;21113;-60
2022/10/03 05:27:24;;;;;;;7.72;4.25;;;;;;;9.78;96.56;99015.24;1650885;85;21106;-61
2022/10/03 05:30:08;;;;;;;5.95;4.10;;;;;;;9.77;97.04;99023.97;1652977;85;20943;-60
2022/10/03 05:32:48;;;;;;;6.97;4.00;;;;;;;9.71;96.84;99033.44;1654800;85;21063;-60
2022/10/03 05:36:01;;;;;;;6.30;3.98;;;;;;;9.72;96.66;99035.11;1654077;85;21487;-60
2022/10/03 05:39:12;;;;;;;3.85;3.55;;;;;;;9.74;95.93;99054.13;1694830;83;21002;-59
2022/10/03 05:41:44;;;;;;;6.40;4.20;;;;;;;9.81;96.27;99050.27;1694947;83;21034;-59
2022/10/03 05:44:17;;;;;;;6.37;4.05;;;;;;;9.83;95.89;99052.30;1667200;83;21496;-59
2022/10/03 05:47:05;;;;;;;6.12;3.62;;;;;;;9.83;96.00;99064.04;1692403;83;21867;-61
2022/10/03 05:49:49;;;;;;;4.70;3.52;;;;;;;9.84;95.83;99065.74;1751894;78;20954;-60
2022/10/03 05:52:31;;;;;;;8.65;3.72;;;;;;;9.85;95.51;99064.80;1795186;78;32561;-60
2022/10/03 05:55:36;;;;;;;5.65;3.50;;;;;;;9.92;94.87;99076.59;1817550;78;21736;-61
2022/10/03 05:58:28;;;;;;;3.85;2.60;;;;;;;9.96;94.28;99071.58;1817299;78;20958;-60
2022/10/03 06:01:15;;;;;;;4.33;2.50;;;;;;;10.04;94.46;99074.61;1820116;78;21042;-60
2022/10/03 06:04:02;;;;;;;6.20;2.75;;;;;;;10.05;92.46;99077.61;1811095;78;21449;-61
2022/10/03 06:07:02;;;;;;;4.55;2.62;;;;;;;10.11;94.00;99086.00;1814697;78;21464;-61
2022/10/03 06:09:42;;;;;;;3.02;2.50;;;;;;;10.23;93.72;99081.42;1758889;79;21001;-61
2022/10/03 06:12:15;;;;;;;4.10;2.35;;;;;;;10.33;94.18;99094.34;1760900;80;20942;-60
2022/10/03 06:15:05;;;;;;;3.65;2.20;;;;;;;10.32;92.84;99097.89;1754204;80;22630;-60
2022/10/03 06:18:11;;;;;;;3.47;2.22;;;;;;;10.27;91.89;99111.65;1768984;80;21024;-61
2022/10/03 06:20:55;;;;;;;2.40;2.03;;;;;;;10.27;92.76;99107.27;1742506;80;20946;-61
2022/10/03 06:23:57;;;;;;;4.85;1.90;;;;;;;10.29;92.56;99115.02;1754147;81;20938;-61
2022/10/03 06:26:57;;;;;;;3.25;1.90;;;;;;;10.32;92.29;99119.23;1745589;81;21018;-61
2022/10/03 06:30:10;;;;;;;5.60;2.17;;;;;;;10.29;92.42;99130.68;1773141;80;21253;-61
2022/10/03 06:33:10;;;;;;;2.05;1.60;;;;;;;10.33;92.77;99136.09;1772173;80;21048;-61
2022/10/03 06:36:22;;;;;;;6.47;2.20;;;;;;;10.41;92.91;99128.67;1757451;80;20954;-60
2022/10/03 06:39:43;;;;;;;4.40;2.08;;;;;;;10.45;91.34;99138.04;1744342;81;20966;-61
2022/10/03 06:42:29;;;;;;;2.65;1.80;;;;;;;10.58;91.16;99134.72;1771369;80;20983;-61
2022/10/03 06:45:30;;;;;;;2.55;1.60;;;;;;;10.70;92.09;99149.72;1744459;81;21797;-61
2022/10/03 06:48:41;;;;;;;3.20;1.85;;;;;;;10.75;92.16;99147.66;1743098;81;21041;-62
2022/10/03 06:51:34;;;;;;;4.67;2.00;;;;;;;10.73;91.45;99154.76;1768158;80;20946;-60
2022/10/03 06:54:54;;;;;;;4.03;1.77;;;;;;;10.76;91.21;99157.19;1775646;80;20935;-60
2022/10/03 06:58:03;;;;;;;4.05;1.62;;;;;;;10.77;90.74;99156.25;1772776;80;21678;-62
2022/10/03 07:00:52;;;;;;;3.22;1.75;;;;;;;10.81;91.40;99175.19;1767288;80;21052;-61
2022/10/03 07:03:55;;;;;;;2.22;1.72;;;;;;;10.71;89.49;99191.38;1767124;80;20977;-61
2022/10/03 07:06:39;;;;;;;2.10;1.50;;;;;;;10.77;90.34;99183.67;1774837;80;20990;-61
2022/10/03 07:09:45;;;;;;;1.30;1.20;;;;;;;10.82;91.29;99181.64;1772629;80;20931;-60
2022/10/03 07:12:34;;;;;;;2.58;1.20;;;;;;;10.89;90.42;99185.57;1774709;79;24273;-61
2022/10/03 07:15:10;;;;;;;2.90;1.32;;;;;;;10.85;90.02;99191.91;1770984;80;22767;-61
2022/10/03 07:18:25;;;;;;;3.25;1.30;;;;;;;10.89;90.38;99197.33;1769889;80;20884;-61
2022/10/03 07:21:23;;;;;;;3.87;1.80;;;;;;;10.89;90.68;99203.86;1769286;80;21009;-61
2022/10/03 07:24:32;;;;;;;3.92;1.60;;;;;;;11.02;90.76;99209.70;1770342;80;20942;-61
2022/10/03 07:27:10;;;;;;;4.22;2.40;;;;;;;11.16;90.68;99209.75;1744730;80;20919;-61
2022/10/03 07:29:57;;;;;;;4.53;2.77;;;;;;;11.25;89.54;99213.12;1741139;81;21033;-61
2022/10/03 07:32:57;;;;;;;2.87;1.67;;;;;;;11.24;90.24;99207.54;1776031;79;21391;-62
2022/10/03 07:39:25;;;;;;;3.25;1.87;;;;;;;11.61;91.45;99218.44;1768069;80;21164;-61
2022/10/03 07:42:33;;;;;;;1.98;0.90;;;;;;;11.90;90.88;99211.95;1770140;78;20954;-62
2022/10/03 07:45:30;;;;;;;1.82;0.98;;;;;;;12.11;90.71;99211.95;1771373;78;21029;-61
2022/10/03 07:48:13;;;;;;;3.05;0.95;;;;;;;12.15;90.04;99213.44;1770901;78;21100;-61
2022/10/03 07:51:07;;;;;;;1.05;0.80;;;;;;;11.93;89.42;99223.53;1774404;78;20894;-61
2022/10/03 07:54:04;;;;;;;2.90;0.80;;;;;;;11.63;88.80;99227.05;1773282;79;20902;-60
2022/10/03 07:56:59;;;;;;;4.03;1.12;;;;;;;11.40;88.52;99238.39;1669583;82;20927;-61
2022/10/03 07:59:34;;;;;;;4.75;1.37;;;;;;;11.20;89.22;99239.98;1709145;80;21334;-61
2022/10/03 08:02:25;;;;;;;1.90;1.00;;;;;;;11.09;89.33;99255.44;1704627;80;21021;-61
2022/10/03 08:05:36;;;;;;;1.00;0.70;;;;;;;11.07;89.62;99253.40;1702256;82;20952;-61
2022/10/03 08:08:25;;;;;;;2.98;1.20;;;;;;;11.08;89.92;99258.98;1734053;81;20976;-61
2022/10/03 08:11:21;;;;;;;1.80;1.05;;;;;;;11.14;89.96;99275.15;1728094;81;21029;-61
2022/10/03 08:14:20;;;;;;;2.83;1.22;;;;;;;11.14;89.87;99271.70;1697116;83;21220;-61
2022/10/03 08:17:16;;;;;;;3.65;1.47;;;;;;;11.15;89.48;99281.24;1704420;82;20933;-61
2022/10/03 08:20:21;;;;;;;3.45;1.30;;;;;;;11.17;88.86;99276.75;1702260;82;21053;-61
2022/10/03 08:23:26;;;;;;;3.17;1.22;;;;;;;11.17;89.51;99279.36;1698203;82;20975;-60
2022/10/03 08:26:13;;;;;;;3.37;1.37;;;;;;;11.14;89.68;99283.45;1700943;82;20970;-61
2022/10/03 08:29:01;;;;;;;4.90;1.40;;;;;;;11.22;90.08;99279.95;1677694;82;21861;-61
2022/10/03 08:31:50;;;;;;;2.30;1.40;;;;;;;11.58;90.50;99281.38;1700712;82;21097;-61
2022/10/03 08:34:57;;;;;;;4.55;1.77;;;;;;;12.09;89.41;99288.39;1736876;80;21004;-61
2022/10/03 08:37:51;;;;;;;3.22;1.12;;;;;;;12.55;89.87;99294.77;1747176;80;20962;-61
2022/10/03 08:41:03;;;;;;;2.58;1.22;;;;;;;12.29;87.32;99305.06;1778693;80;21764;-62
2022/10/03 08:44:01;;;;;;;3.67;1.35;;;;;;;11.75;87.47;99307.37;1763045;81;21072;-62
2022/10/03 08:47:21;;;;;;;4.10;1.10;;;;;;;10.34;90.24;99321.77;1786789;80;21040;-62
2022/10/03 08:50:27;;;;;;;1.98;1.57;;;;;;;10.34;90.24;99321.77;1784607;80;21565;-62
2022/10/03 08:53:23;;;;;;;3.15;2.37;;;;;;;10.08;91.21;99326.55;1748154;81;20934;-62
2022/10/03 08:56:12;;;;;;;1.30;1.10;;;;;;;10.09;93.61;99319.09;1755600;80;20965;-62
2022/10/03 08:59:19;;;;;;;2.72;1.20;;;;;;;10.40;93.82;99317.52;1744466;80;21570;-62
2022/10/03 09:02:08;;;;;;;3.47;1.40;;;;;;;10.73;93.43;99326.62;1760795;81;21021;-62
2022/10/03 09:05:24;;;;;;;3.65;1.72;;;;;;;10.95;93.39;99318.91;1775413;80;20918;-62
2022/10/03 09:08:26;;;;;;;3.27;1.52;;;;;;;11.02;92.98;99316.81;1760723;80;21479;-63
2022/10/03 09:11:31;;;;;;;5.37;2.37;;;;;;;11.02;94.29;99327.27;1766205;81;21106;-62
2022/10/03 09:14:26;;;;;;;7.17;2.52;;;;;;;11.33;93.95;99322.00;1762518;79;21935;-62
2022/10/03 09:17:18;;;;;;;3.02;1.62;;;;;;;11.65;94.02;99306.25;1763727;81;21009;-62
2022/10/03 09:20:07;;;;;;;3.15;1.70;;;;;;;11.61;92.83;99346.09;1687340;84;21475;-63
2022/10/03 09:23:12;;;;;;;2.85;1.30;;;;;;;11.65;92.59;99348.09;1686782;83;20976;-62
2022/10/03 09:25:44;;;;;;;5.22;3.02;;;;;;;11.51;92.57;99357.16;1686532;84;20950;-62
2022/10/03 09:28:49;;;;;;;1.62;1.30;;;;;;;11.10;92.71;99351.20;1684378;83;21023;-61
2022/10/03 09:31:32;;;;;;;2.62;1.50;;;;;;;10.22;92.26;99353.23;1684936;82;20954;-61
2022/10/03 09:34:24;;;;;;;2.10;1.40;;;;;;;10.22;92.26;99353.23;1686821;83;21025;-62
2022/10/03 09:37:44;;;;;;;2.77;1.60;;;;;;;9.91;93.64;99359.14;1687077;83;21141;-63
2022/10/03 09:40:38;;;;;;;3.60;1.22;;;;;;;9.90;94.25;99357.47;1687283;83;21080;-63
2022/10/03 09:43:50;;;;;;;1.77;1.50;;;;;;;9.99;94.61;99351.78;1661324;84;21950;-63
2022/10/03 09:46:40;;;;;;;2.60;1.62;;;;;;;10.08;95.14;99357.85;1667979;84;21460;-63
2022/10/03 09:49:23;;;;;;;2.25;1.55;;;;;;;10.21;94.96;99350.69;1657370;84;20959;-61
2022/10/03 09:52:07;;;;;;;1.72;1.50;;;;;;;10.35;95.01;99361.28;1581128;89;21134;-63
2022/10/03 09:55:17;;;;;;;2.90;1.82;;;;;;;10.33;95.47;99359.67;1584754;89;21579;-62
2022/10/03 09:58:27;;;;;;;2.67;2.22;;;;;;;10.47;95.50;99359.80;1567173;90;21260;-62
2022/10/03 10:01:19;;;;;;;2.55;2.10;;;;;;;10.59;95.62;99360.94;1614057;87;20995;-62
2022/10/03 10:03:51;;;;;;;2.90;2.35;;;;;;;10.72;95.67;99361.95;1620774;87;20906;-62
2022/10/03 10:06:43;;;;;;;3.58;1.90;;;;;;;10.97;96.02;99358.38;1579380;89;21099;-63
2022/10/03 10:09:52;;;;;;;4.03;2.37;;;;;;;11.29;96.26;99363.63;1616357;87;21031;-63
2022/10/03 10:12:54;;;;;;;2.70;1.92;;;;;;;11.61;95.79;99370.94;1626434;87;21127;-63
2022/10/03 10:15:53;;;;;;;4.05;2.22;;;;;;;11.65;94.49;99375.55;1621779;87;21050;-63
2022/10/03 10:18:39;;;;;;;2.90;2.08;;;;;;;11.72;94.44;99380.80;1619157;86;21067;-63
2022/10/03 10:21:44;;;;;;;2.30;1.80;;;;;;;11.78;93.39;99383.05;1673821;84;21112;-63
2022/10/03 10:24:55;;;;;;;2.98;1.82;;;;;;;11.36;91.60;99392.39;1680529;83;20974;-63
2022/10/03 10:27:36;;;;;;;3.37;2.00;;;;;;;11.31;92.84;99389.19;1683136;83;21053;-63
2022/10/03 10:30:20;;;;;;;2.58;2.05;;;;;;;11.55;92.39;99384.84;1799490;77;21007;-63
2022/10/03 10:33:26;;;;;;;4.30;2.35;;;;;;;11.76;92.80;99380.14;1804095;78;21484;-65
2022/10/03 10:36:35;;;;;;;3.00;2.47;;;;;;;12.07;92.57;99387.08;1808261;77;20942;-63
2022/10/03 10:39:33;;;;;;;3.42;2.50;;;;;;;12.44;92.19;99392.77;1770531;79;21284;-63
2022/10/03 10:42:36;;;;;;;3.72;2.47;;;;;;;12.41;89.31;99389.88;1684029;83;21096;-63
2022/10/03 10:45:20;;;;;;;5.53;2.08;;;;;;;12.62;91.04;99395.57;1690768;83;22043;-63
2022/10/03 10:48:20;;;;;;;2.52;2.00;;;;;;;12.40;89.31;99396.49;1688867;83;20915;-63
2022/10/03 10:51:24;;;;;;;3.85;1.75;;;;;;;12.45;89.95;99402.30;1683444;83;21022;-63
2022/10/03 10:54:21;;;;;;;2.55;1.70;;;;;;;12.41;88.17;99402.96;1633391;85;21460;-63
2022/10/03 10:57:02;;;;;;;2.10;1.90;;;;;;;12.34;87.93;99400.32;1630741;86;21708;-63
2022/10/03 11:00:08;;;;;;;2.67;2.12;;;;;;;12.39;88.48;99402.67;1627650;86;20930;-63
2022/10/03 11:03:24;;;;;;;4.20;2.15;;;;;;;12.36;86.42;99413.33;1632427;86;21014;-63
2022/10/03 11:06:28;;;;;;;3.67;1.95;;;;;;;12.37;87.87;99405.84;1622673;86;21152;-63
2022/10/03 11:09:05;;;;;;;3.15;1.92;;;;;;;12.23;85.87;99406.19;1632860;86;22305;-62
2022/10/03 11:12:28;;;;;;;2.33;1.85;;;;;;;12.09;84.84;99414.01;1636589;86;21151;-63
2022/10/03 11:15:35;;;;;;;2.62;2.20;;;;;;;12.11;86.29;99423.93;1691417;82;20985;-63
2022/10/03 11:18:20;;;;;;;;;;;;;;;12.22;83.47;99426.77;1629439;86;20982;-63
2022/10/03 11:21:32;;;;;;;4.40;1.67;;;;;;;12.43;86.22;99413.33;1690053;82;20202;-63
2022/10/03 11:24:34;;;;;;;2.85;2.10;;;;;;;12.64;86.23;99417.28;1686683;82;21113;-63
2022/10/03 11:27:33;;;;;;;3.83;1.50;;;;;;;12.65;83.31;99415.02;1638600;85;21129;-62
2022/10/03 11:30:17;;;;;;;2.02;1.50;;;;;;;12.30;77.32;99438.10;1665044;82;21046;-62
2022/10/03 11:33:27;;;;;;;2.35;1.60;;;;;;;12.46;81.88;99418.38;1732688;82;20979;-62
2022/10/03 11:36:01;;;;;;;3.27;1.45;;;;;;;12.53;81.32;99413.16;1726377;82;20999;-62
2022/10/03 11:38:48;;;;;;;2.67;2.00;;;;;;;12.49;80.60;99422.11;1734136;82;20946;-62
2022/10/03 11:41:38;;;;;;;2.65;1.70;;;;;;;12.50;80.34;99430.37;1673789;84;21900;-62
2022/10/03 11:44:24;;;;;;;1.80;1.40;;;;;;;12.65;82.52;99426.81;1673106;84;20978;-64
2022/10/03 11:47:23;;;;;;;3.08;1.75;;;;;;;12.91;83.01;99424.38;1669875;84;20902;-62
2022/10/03 11:50:28;;;;;;;2.65;1.87;;;;;;;13.04;79.03;99430.55;1674642;84;20946;-62
2022/10/03 11:53:31;;;;;;;2.00;1.57;;;;;;;13.13;79.19;99420.80;1682417;84;20926;-62
2022/10/03 11:56:27;;;;;;;3.35;2.00;;;;;;;13.10;79.24;99422.30;1671406;84;21045;-62
2022/10/03 11:59:14;;;;;;;2.77;1.77;;;;;;;13.05;80.54;99429.63;1676188;84;20910;-62
2022/10/03 12:02:13;;;;;;;4.50;2.12;;;;;;;12.78;79.27;99426.09;1673918;84;20945;-63
2022/10/03 12:05:02;;;;;;;3.40;1.50;;;;;;;12.57;78.58;99431.66;1682562;84;20978;-62
2022/10/03 12:11:00;;;;;;;2.10;1.50;;;;;;;12.36;78.88;99433.80;1676645;84;21565;-62
2022/10/03 12:13:44;;;;;;;2.10;1.55;;;;;;;12.29;78.94;99435.95;1673163;84;21509;-63
2022/10/03 12:16:26;;;;;;;2.52;1.50;;;;;;;12.32;79.27;99447.98;1679533;80;21070;-63
2022/10/03 12:19:17;;;;;;;3.80;1.65;;;;;;;12.30;79.69;99449.41;1763165;80;20946;-63
2022/10/03 12:22:01;;;;;;;2.15;1.60;;;;;;;12.33;80.39;99459.33;1763556;80;21072;-62
2022/10/03 12:24:31;;;;;;;2.33;1.65;;;;;;;12.13;80.54;99441.70;1716959;81;21065;-62
2022/10/03 12:27:15;;;;;;;3.60;1.80;;;;;;;12.15;80.46;99459.45;1720162;82;21053;-62
2022/10/03 12:29:47;;;;;;;3.62;1.80;;;;;;;12.19;81.23;99460.97;1685830;83;20993;-63
2022/10/03 12:32:20;;;;;;;5.12;1.80;;;;;;;12.27;81.57;99456.13;1687761;83;20962;-63
2022/10/03 12:35:22;;;;;;;2.75;1.82;;;;;;;12.18;80.93;99445.34;1713658;82;20954;-62
2022/10/03 12:37:56;;;;;;;3.27;1.90;;;;;;;12.14;80.64;99460.39;1620244;86;21171;-62
2022/10/03 12:40:31;;;;;;;4.08;1.92;;;;;;;12.22;81.41;99462.10;1625280;86;21049;-62
2022/10/03 12:43:12;;;;;;;1.92;1.57;;;;;;;12.16;81.12;99466.39;1594156;88;20974;-62
2022/10/03 12:45:44;;;;;;;1.85;1.60;;;;;;;12.06;80.84;99465.22;1618099;87;21112;-62
2022/10/03 12:48:34;;;;;;;2.67;1.72;;;;;;;12.02;81.20;99461.11;1625932;86;20926;-62
2022/10/03 12:51:23;;;;;;;1.77;1.40;;;;;;;11.94;80.92;99462.01;1591712;88;21375;-62
2022/10/03 12:53:58;;;;;;;3.35;1.60;;;;;;;11.82;80.41;99457.82;1628730;86;20967;-62
2022/10/03 12:56:42;;;;;;;2.42;1.50;;;;;;;11.76;80.87;99463.41;1588309;89;20996;-61
2022/10/03 12:59:19;;;;;;;2.70;1.42;;;;;;;11.79;81.33;99473.69;1622614;87;21097;-63
2022/10/03 13:02:31;;;;;;;2.00;1.30;;;;;;;11.71;79.90;99491.58;1590100;88;20940;-62
2022/10/03 13:05:36;;;;;;;1.50;1.40;;;;;;;11.71;79.90;99491.58;1573366;91;21500;-62
2022/10/03 13:08:27;;;;;;;3.65;1.50;;;;;;;11.71;80.99;99486.35;1567421;90;21050;-61
2022/10/03 13:11:02;;;;;;;4.17;2.05;;;;;;;11.73;81.04;99487.08;1524857;90;20995;-62
2022/10/03 13:13:36;;;;;;;3.65;1.90;;;;;;;11.70;81.29;99481.19;1596462;87;21041;-62
2022/10/03 13:16:18;;;;;;;3.80;1.67;;;;;;;11.65;81.25;99495.84;1602299;87;20915;-61
2022/10/03 13:18:59;;;;;;;3.95;1.62;;;;;;;11.58;81.68;99492.70;1609150;87;21914;-61
2022/10/03 13:22:02;;;;;;;4.62;1.70;;;;;;;11.51;82.12;99489.20;1603721;86;21549;-62
2022/10/03 13:24:38;;;;;;;4.62;2.17;;;;;;;11.46;82.40;99472.95;1606416;87;20970;-62
2022/10/03 13:27:32;;;;;;;3.67;2.15;;;;;;;11.67;82.76;99483.98;1606162;87;20958;-62
2022/10/03 13:30:17;;;;;;;3.65;2.33;;;;;;;11.67;82.76;99483.98;1605454;87;20902;-61
2022/10/03 13:32:55;;;;;;;3.20;2.20;;;;;;;11.79;83.49;99486.77;1578036;89;21489;-61
2022/10/03 13:35:58;;;;;;;3.20;2.90;;;;;;;11.86;83.48;99482.89;1601866;87;21083;-62
2022/10/03 13:38:59;;;;;;;4.62;3.08;;;;;;;11.93;83.64;99476.00;1581231;87;20990;-62
2022/10/03 13:41:37;;;;;;;4.75;3.17;;;;;;;11.95;83.69;99488.54;1557923;88;21099;-61